createdAt,value
2019-04-07T00:01:54.068Z,100292.69
2019-04-07T00:04:23.741Z,100296.55
2019-04-07T00:06:53.334Z,100288.63
2019-04-07T00:09:25.839Z,100290.69
2019-04-07T00:11:55.309Z,100290.20
2019-04-07T00:14:24.842Z,100286.78
2019-04-07T00:16:54.221Z,100288.75
2019-04-07T00:19:24.775Z,100286.36
2019-04-07T00:21:54.207Z,100291.69
2019-04-07T00:24:25.672Z,100283.02
2019-04-07T00:26:56.187Z,100282.06
2019-04-07T00:29:25.620Z,100284.64
2019-04-07T00:31:54.966Z,100288.80
2019-04-07T00:34:24.792Z,100282.48
2019-04-07T00:36:54.215Z,100276.77
2019-04-07T00:39:23.672Z,100278.34
2019-04-07T00:41:53.216Z,100274.81
2019-04-07T00:44:22.620Z,100273.25
2019-04-07T00:46:52.592Z,100280.84
2019-04-07T00:49:22.090Z,100281.41
2019-04-07T00:51:54.593Z,100275.75
2019-04-07T00:54:23.968Z,100281.37
2019-04-07T00:56:53.453Z,100280.97
2019-04-07T00:59:24.264Z,100281.95
2019-04-07T01:01:53.764Z,100276.19
2019-04-07T01:04:23.284Z,100280.23
2019-04-07T01:06:52.720Z,100281.07
2019-04-07T01:09:22.390Z,100276.58
2019-04-07T01:11:52.401Z,100275.75
2019-04-07T01:14:22.443Z,100275.34
2019-04-07T01:16:51.884Z,100281.72
2019-04-07T01:19:21.329Z,100277.84
2019-04-07T01:21:52.192Z,100284.45
2019-04-07T01:24:21.995Z,100274.86
2019-04-07T01:26:52.539Z,100269.81
2019-04-07T01:29:23.326Z,100280.83
2019-04-07T01:31:53.309Z,100277.16
2019-04-07T01:34:24.079Z,100276.72
2019-04-07T01:36:53.572Z,100281.46
2019-04-07T01:39:23.145Z,100282.00
2019-04-07T01:42:11.615Z,100285.42
2019-04-07T01:45:02.655Z,100279.70
2019-04-07T01:47:44.303Z,100286.84
2019-04-07T01:50:37.297Z,100278.67
2019-04-07T01:53:25.414Z,100273.73
2019-04-07T01:56:18.374Z,100273.45
2019-04-07T01:59:12.505Z,100268.35
2019-04-07T02:02:20.194Z,100271.53
2019-04-07T02:05:23.635Z,100269.91
2019-04-07T02:08:16.653Z,100274.40
2019-04-07T02:11:06.045Z,100269.65
2019-04-07T02:13:54.746Z,100268.21
2019-04-07T02:16:59.248Z,100274.77
2019-04-07T02:19:41.706Z,100275.38
2019-04-07T02:22:36.619Z,100273.75
2019-04-07T02:25:27.278Z,100279.98
2019-04-07T02:28:17.660Z,100269.61
2019-04-07T02:31:08.122Z,100275.84
2019-04-07T02:33:42.541Z,100276.84
2019-04-07T02:36:33.764Z,100273.09
2019-04-07T02:39:27.087Z,100278.45
2019-04-07T02:42:11.198Z,100276.29
2019-04-07T02:45:02.257Z,100277.53
2019-04-07T02:47:50.042Z,100270.54
2019-04-07T02:50:24.374Z,100265.35
2019-04-07T02:53:19.467Z,100266.67
2019-04-07T02:55:58.356Z,100267.91
2019-04-07T02:58:52.755Z,100264.07
2019-04-07T03:01:41.448Z,100269.78
2019-04-07T03:04:31.262Z,100269.97
2019-04-07T03:07:13.975Z,100264.73
2019-04-07T03:09:56.798Z,100271.77
2019-04-07T03:12:54.726Z,100274.73
2019-04-07T03:15:52.748Z,100268.44
2019-04-07T03:18:35.761Z,100269.42
2019-04-07T03:21:21.411Z,100269.50
2019-04-07T03:23:59.703Z,100278.35
2019-04-07T03:26:47.697Z,100274.00
2019-04-07T03:29:29.770Z,100274.20
2019-04-07T03:32:08.473Z,100272.14
2019-04-07T03:35:00.075Z,100271.70
2019-04-07T03:37:53.078Z,100277.14
2019-04-07T03:40:44.671Z,100274.19
2019-04-07T03:43:34.625Z,100276.39
2019-04-07T03:46:18.388Z,100273.94
2019-04-07T03:49:13.450Z,100275.76
2019-04-07T03:52:05.696Z,100270.11
2019-04-07T03:54:54.829Z,100270.17
2019-04-07T03:57:35.309Z,100272.83
2019-04-07T04:00:36.925Z,100270.20
2019-04-07T04:03:19.322Z,100270.75
2019-04-07T04:08:48.939Z,100259.84
2019-04-07T04:11:43.719Z,100267.41
2019-04-07T04:14:29.866Z,100265.88
2019-04-07T04:16:59.287Z,100267.65
2019-04-07T04:19:28.840Z,100272.08
2019-04-07T04:21:58.857Z,100271.20
2019-04-07T04:24:28.578Z,100274.30
2019-04-07T04:26:59.150Z,100279.17
2019-04-07T04:29:29.796Z,100278.39
2019-04-07T04:31:59.734Z,100281.88
2019-04-07T04:34:29.250Z,100279.17
2019-04-07T04:36:59.830Z,100277.85
2019-04-07T04:39:29.600Z,100278.29
2019-04-07T04:41:59.935Z,100281.70
2019-04-07T04:44:29.575Z,100285.08
2019-04-07T04:47:02.526Z,100286.47
2019-04-07T04:49:33.610Z,100283.50
2019-04-07T04:52:05.152Z,100293.19
2019-04-07T04:54:35.347Z,100295.47
2019-04-07T04:57:07.873Z,100299.61
2019-04-07T04:59:36.640Z,100300.56
2019-04-07T05:02:07.963Z,100302.39
2019-04-07T05:04:39.814Z,100312.08
2019-04-07T05:07:10.185Z,100306.05
2019-04-07T05:09:46.222Z,100316.98
2019-04-07T05:12:11.636Z,100322.38
2019-04-07T05:14:42.862Z,100323.27
2019-04-07T05:17:15.280Z,100320.09
2019-04-07T05:19:45.355Z,100327.05
2019-04-07T05:22:15.272Z,100327.52
2019-04-07T05:24:45.488Z,100336.17
2019-04-07T05:27:14.939Z,100339.22
2019-04-07T05:29:44.653Z,100338.38
2019-04-07T05:32:14.564Z,100337.09
2019-04-07T05:34:43.919Z,100339.22
2019-04-07T05:37:14.093Z,100348.05
2019-04-07T05:39:43.744Z,100346.23
2019-04-07T05:42:13.482Z,100349.75
2019-04-07T05:44:43.201Z,100351.50
2019-04-07T05:47:14.407Z,100357.16
2019-04-07T05:49:44.572Z,100354.36
2019-04-07T05:52:17.308Z,100360.30
2019-04-07T05:54:49.595Z,100364.86
2019-04-07T05:57:18.608Z,100362.16
2019-04-07T05:59:48.722Z,100363.83
2019-04-07T06:02:18.870Z,100371.83
2019-04-07T06:04:49.184Z,100373.56
2019-04-07T06:07:19.126Z,100375.70
2019-04-07T06:09:51.242Z,100366.73
2019-04-07T06:12:20.355Z,100369.19
2019-04-07T06:14:49.875Z,100376.91
2019-04-07T06:17:19.465Z,100374.05
2019-04-07T06:19:51.231Z,100370.41
2019-04-07T06:22:21.019Z,100387.09
2019-04-07T06:24:52.848Z,100382.64
2019-04-07T06:27:22.819Z,100389.47
2019-04-07T06:29:59.909Z,100386.52
2019-04-07T06:32:28.278Z,100390.48
2019-04-07T06:34:57.553Z,100386.05
2019-04-07T06:37:29.381Z,100400.00
2019-04-07T06:39:57.822Z,100394.66
2019-04-07T06:42:31.550Z,100396.30
2019-04-07T06:45:00.490Z,100390.36
2019-04-07T06:47:33.584Z,100393.13
2019-04-07T06:50:31.172Z,100390.37
2019-04-07T06:53:25.876Z,100386.77
2019-04-07T06:56:14.330Z,100387.69
2019-04-07T06:58:59.246Z,100386.75
2019-04-07T07:01:36.210Z,100399.37
2019-04-07T07:04:24.346Z,100396.91
2019-04-07T07:07:07.349Z,100396.64
2019-04-07T07:10:00.124Z,100401.84
2019-04-07T07:12:59.162Z,100400.39
2019-04-07T07:15:49.888Z,100397.31
2019-04-07T07:18:28.376Z,100399.02
2019-04-07T07:21:05.128Z,100390.43
2019-04-07T07:23:37.466Z,100392.58
2019-04-07T07:26:08.121Z,100389.95
2019-04-07T07:28:38.022Z,100402.11
2019-04-07T07:31:07.812Z,100399.37
2019-04-07T07:33:40.442Z,100401.03
2019-04-07T07:36:08.185Z,100408.67
2019-04-07T07:38:37.499Z,100404.02
2019-04-07T07:41:06.785Z,100383.31
2019-04-07T07:43:36.095Z,100402.43
2019-04-07T07:46:05.628Z,100403.86
2019-04-07T07:48:35.644Z,100405.94
2019-04-07T07:51:07.138Z,100396.69
2019-04-07T07:53:36.207Z,100395.98
2019-04-07T07:56:10.591Z,100395.55
2019-04-07T07:58:36.879Z,100393.96
2019-04-07T08:01:06.368Z,100394.74
2019-04-07T08:03:36.077Z,100395.64
2019-04-07T08:06:08.223Z,100407.08
2019-04-07T08:08:36.431Z,100401.03
2019-04-07T08:11:05.857Z,100403.94
2019-04-07T08:13:41.202Z,100402.24
2019-04-07T08:16:06.423Z,100403.44
2019-04-07T08:18:37.147Z,100412.84
2019-04-07T08:21:07.260Z,100407.42
2019-04-07T08:23:37.327Z,100412.53
2019-04-07T08:26:09.436Z,100409.84
2019-04-07T08:28:39.220Z,100412.36
2019-04-07T08:31:08.572Z,100415.95
2019-04-07T08:33:38.529Z,100416.65
2019-04-07T08:36:11.168Z,100417.09
2019-04-07T08:38:38.857Z,100409.80
2019-04-07T08:41:10.569Z,100403.45
2019-04-07T08:43:39.798Z,100408.84
2019-04-07T08:46:09.928Z,100409.66
2019-04-07T08:48:40.171Z,100411.70
2019-04-07T08:51:10.101Z,100413.19
2019-04-07T08:53:43.603Z,100408.50
2019-04-07T08:56:10.892Z,100407.42
2019-04-07T08:58:40.265Z,100395.47
2019-04-07T09:01:09.782Z,100398.86
2019-04-07T09:03:39.938Z,100407.19
2019-04-07T09:06:09.708Z,100398.72
2019-04-07T09:08:39.873Z,100403.80
2019-04-07T09:11:15.770Z,100404.42
2019-04-07T09:13:55.955Z,100409.57
2019-04-07T09:16:39.321Z,100411.46
2019-04-07T09:19:31.013Z,100408.77
2019-04-07T09:22:25.299Z,100409.02
2019-04-07T09:25:20.415Z,100411.77
2019-04-07T09:28:03.164Z,100409.43
2019-04-07T09:30:41.008Z,100413.79
2019-04-07T09:33:29.787Z,100415.65
2019-04-07T09:36:24.635Z,100417.78
2019-04-07T09:39:16.614Z,100418.46
2019-04-07T09:42:10.134Z,100414.83
2019-04-07T09:44:46.776Z,100427.35
2019-04-07T09:47:46.850Z,100428.62
2019-04-07T09:50:33.218Z,100426.05
2019-04-07T09:53:30.735Z,100428.52
2019-04-07T09:56:21.825Z,100419.61
2019-04-07T09:59:00.310Z,100423.50
2019-04-07T10:02:06.303Z,100419.34
2019-04-07T10:04:59.290Z,100416.22
2019-04-07T10:07:40.255Z,100418.27
2019-04-07T10:10:35.017Z,100426.20
2019-04-07T10:13:26.496Z,100428.36
2019-04-07T10:16:14.901Z,100410.93
2019-04-07T10:19:13.000Z,100426.42
2019-04-07T10:22:13.943Z,100420.29
2019-04-07T10:25:02.471Z,100421.53
2019-04-07T10:27:54.377Z,100426.00
2019-04-07T10:30:34.942Z,100424.32
2019-04-07T10:33:26.285Z,100415.92
2019-04-07T10:36:13.721Z,100410.51
2019-04-07T10:39:02.170Z,100421.80
2019-04-07T10:41:42.806Z,100414.71
2019-04-07T10:44:36.534Z,100418.72
2019-04-07T10:47:25.605Z,100428.59
2019-04-07T10:50:14.350Z,100415.43
2019-04-07T10:53:02.685Z,100418.25
2019-04-07T10:55:58.086Z,100413.23
2019-04-07T10:58:41.412Z,100413.92
2019-04-07T11:01:29.635Z,100421.13
2019-04-07T11:04:24.016Z,100414.32
2019-04-07T11:07:19.055Z,100418.59
2019-04-07T11:10:05.140Z,100412.74
2019-04-07T11:12:47.976Z,100419.14
2019-04-07T11:15:33.031Z,100427.20
2019-04-07T11:18:33.747Z,100418.93
2019-04-07T11:21:21.495Z,100416.15
2019-04-07T11:24:01.617Z,100413.63
2019-04-07T11:26:49.889Z,100413.73
2019-04-07T11:29:29.564Z,100418.73
2019-04-07T11:32:17.716Z,100411.48
2019-04-07T11:34:55.595Z,100414.31
2019-04-07T11:37:53.937Z,100409.72
2019-04-07T11:40:45.244Z,100414.06
2019-04-07T11:43:30.588Z,100413.77
2019-04-07T11:46:24.267Z,100415.41
2019-04-07T11:49:19.519Z,100406.17
2019-04-07T11:52:00.017Z,100408.91
2019-04-07T11:54:38.164Z,100405.30
2019-04-07T11:57:13.671Z,100401.22
2019-04-07T12:00:00.016Z,100418.56
2019-04-07T12:02:55.396Z,100411.85
2019-04-07T12:05:46.840Z,100408.16
2019-04-07T12:08:38.684Z,100411.61
2019-04-07T12:11:27.752Z,100412.38
2019-04-07T12:14:09.121Z,100404.92
2019-04-07T12:16:59.359Z,100407.65
2019-04-07T12:19:54.907Z,100404.28
2019-04-07T12:22:49.934Z,100401.05
2019-04-07T12:25:37.329Z,100395.93
2019-04-07T12:28:47.564Z,100412.16
2019-04-07T12:31:29.356Z,100411.59
2019-04-07T12:34:15.390Z,100401.38
2019-04-07T12:37:22.012Z,100402.63
2019-04-07T12:40:13.144Z,100399.48
2019-04-07T12:43:19.481Z,100400.73
2019-04-07T12:45:54.878Z,100397.99
2019-04-07T12:48:32.409Z,100399.16
2019-04-07T12:51:27.589Z,100388.54
2019-04-07T12:54:19.006Z,100388.91
2019-04-07T12:57:07.305Z,100391.23
2019-04-07T12:59:50.157Z,100391.55
2019-04-07T13:02:39.153Z,100388.63
2019-04-07T13:05:21.360Z,100385.02
2019-04-07T13:08:09.171Z,100383.46
2019-04-07T13:11:04.840Z,100384.66
2019-04-07T13:13:56.093Z,100380.09
2019-04-07T13:16:44.619Z,100374.50
2019-04-07T13:19:35.571Z,100381.17
2019-04-07T13:22:27.236Z,100387.84
2019-04-07T13:25:13.091Z,100391.58
2019-04-07T13:27:55.820Z,100384.61
2019-04-07T13:30:32.615Z,100385.64
2019-04-07T13:33:33.187Z,100376.59
2019-04-07T13:36:21.475Z,100385.63
2019-04-07T13:39:12.811Z,100388.70
2019-04-07T13:42:02.115Z,100379.73
2019-04-07T13:44:49.737Z,100375.15
2019-04-07T13:47:31.989Z,100381.72
2019-04-07T13:50:17.934Z,100384.62
2019-04-07T13:53:12.470Z,100383.22
2019-04-07T13:55:59.580Z,100377.30
2019-04-07T13:58:39.004Z,100377.61
2019-04-07T14:01:32.275Z,100372.55
2019-04-07T14:04:23.101Z,100375.73
2019-04-07T14:06:58.818Z,100375.87
2019-04-07T14:09:50.695Z,100377.06
2019-04-07T14:12:51.271Z,100375.27
2019-04-07T14:15:38.408Z,100382.11
2019-04-07T14:18:17.888Z,100381.41
2019-04-07T14:21:12.240Z,100376.75
2019-04-07T14:24:03.648Z,100361.99
2019-04-07T14:27:04.366Z,100377.16
2019-04-07T14:30:02.726Z,100380.30
2019-04-07T14:32:50.738Z,100374.59
2019-04-07T14:35:37.015Z,100377.08
2019-04-07T14:38:33.236Z,100376.47
2019-04-07T14:41:21.507Z,100373.81
2019-04-07T14:43:56.530Z,100378.11
2019-04-07T14:46:50.118Z,100367.81
2019-04-07T14:49:37.915Z,100371.20
2019-04-07T14:52:36.156Z,100366.85
2019-04-07T14:55:54.504Z,100380.54
2019-04-07T14:59:08.089Z,100374.09
2019-04-07T15:01:54.013Z,100369.37
2019-04-07T15:04:59.504Z,100373.41
2019-04-07T15:07:52.805Z,100379.60
2019-04-07T15:10:27.607Z,100377.05
2019-04-07T15:13:01.891Z,100386.33
2019-04-07T15:15:41.676Z,100386.59
2019-04-07T15:18:11.639Z,100386.77
2019-04-07T15:20:43.759Z,100385.58
2019-04-07T15:23:25.499Z,100384.09
2019-04-07T15:25:58.952Z,100380.45
2019-04-07T15:28:49.291Z,100384.41
2019-04-07T15:31:21.718Z,100379.20
2019-04-07T15:34:08.661Z,100387.22
2019-04-07T15:36:47.983Z,100385.66
2019-04-07T15:39:44.749Z,100384.79
2019-04-07T15:42:52.608Z,100376.85
2019-04-07T15:45:33.362Z,100386.44
2019-04-07T15:48:27.125Z,100385.65
2019-04-07T15:51:13.287Z,100381.97
2019-04-07T15:54:06.414Z,100387.47
2019-04-07T15:56:35.775Z,100392.17
2019-04-07T15:59:46.200Z,100389.67
2019-04-07T16:02:16.041Z,100396.27
2019-04-07T16:04:49.219Z,100396.35
2019-04-07T16:07:23.070Z,100394.84
2019-04-07T16:10:14.520Z,100387.38
2019-04-07T16:13:08.896Z,100390.55
2019-04-07T16:21:49.458Z,100391.56
2019-04-07T16:24:53.879Z,100395.02
2019-04-07T16:27:40.632Z,100400.05
2019-04-07T16:35:02.538Z,100399.16
2019-04-07T16:37:23.622Z,100397.22
2019-04-07T16:40:18.509Z,100400.96
2019-04-07T16:43:58.705Z,100402.94
2019-04-07T16:46:28.252Z,100404.94
2019-04-07T16:49:01.791Z,100409.35
2019-04-07T16:51:33.646Z,100406.46
2019-04-07T16:54:02.723Z,100409.67
2019-04-07T16:56:32.331Z,100410.06
2019-04-07T16:59:02.580Z,100406.75
2019-04-07T17:01:31.971Z,100414.73
2019-04-07T17:04:01.301Z,100407.78
2019-04-07T17:06:34.716Z,100415.12
2019-04-07T17:09:02.456Z,100420.05
2019-04-07T17:11:32.313Z,100421.93
2019-04-07T17:14:02.939Z,100423.72
2019-04-07T17:16:33.439Z,100429.23
2019-04-07T17:19:02.823Z,100424.18
2019-04-07T17:21:32.893Z,100433.09
2019-04-07T17:24:03.996Z,100432.18
2019-04-07T17:26:37.428Z,100429.89
2019-04-07T17:29:05.053Z,100438.89
2019-04-07T17:31:34.801Z,100436.30
2019-04-07T17:34:07.344Z,100442.59
2019-04-07T17:36:48.426Z,100436.70
2019-04-07T17:40:15.710Z,100437.65
2019-04-07T17:42:45.910Z,100443.67
2019-04-07T17:45:48.022Z,100439.06
2019-04-07T17:48:37.348Z,100445.86
2019-04-07T17:51:42.217Z,100452.45
2019-04-07T17:54:29.189Z,100454.05
2019-04-07T17:57:07.110Z,100448.58
2019-04-07T17:59:55.291Z,100457.33
2019-04-07T18:02:44.149Z,100462.43
2019-04-07T18:05:42.005Z,100462.77
2019-04-07T18:08:46.010Z,100467.33
2019-04-07T18:11:35.022Z,100471.94
2019-04-07T18:14:24.570Z,100474.58
2019-04-07T18:17:08.663Z,100479.11
2019-04-07T18:19:45.431Z,100483.61
2019-04-07T18:22:42.466Z,100484.13
2019-04-07T18:25:25.070Z,100482.88
2019-04-07T18:28:03.276Z,100494.16
2019-04-07T18:30:44.040Z,100492.55
2019-04-07T18:33:21.307Z,100494.64
2019-04-07T18:36:12.073Z,100506.72
2019-04-07T18:39:04.479Z,100510.14
2019-04-07T18:41:42.484Z,100510.50
2019-04-07T18:44:35.236Z,100518.68
2019-04-07T18:47:24.143Z,100522.73
2019-04-07T18:50:20.226Z,100526.86
2019-04-07T18:53:09.203Z,100531.83
2019-04-07T18:55:57.954Z,100528.39
2019-04-07T18:59:04.670Z,100538.03
2019-04-07T19:02:01.793Z,100545.29
2019-04-07T19:05:05.291Z,100548.66
2019-04-07T19:07:52.866Z,100559.72
2019-04-07T19:10:35.542Z,100560.14
2019-04-07T19:13:30.064Z,100560.98
2019-04-07T19:16:13.561Z,100566.45
2019-04-07T19:19:05.164Z,100567.33
2019-04-07T19:21:53.723Z,100570.50
2019-04-07T19:25:05.181Z,100574.84
2019-04-07T19:27:50.463Z,100573.67
2019-04-07T19:30:38.909Z,100578.69
2019-04-07T19:33:30.083Z,100574.44
2019-04-07T19:36:24.399Z,100575.67
2019-04-07T19:39:21.393Z,100575.55
2019-04-07T19:42:14.840Z,100577.75
2019-04-07T19:45:07.422Z,100579.89
2019-04-07T19:48:05.401Z,100581.68
2019-04-07T19:50:59.039Z,100579.66
2019-04-07T19:53:43.173Z,100576.37
2019-04-07T19:56:25.836Z,100584.70
2019-04-07T19:59:12.841Z,100574.41
2019-04-07T20:02:10.052Z,100575.07
2019-04-07T20:05:01.553Z,100578.18
2019-04-07T20:07:48.519Z,100581.34
2019-04-07T20:10:35.860Z,100582.00
2019-04-07T20:13:38.382Z,100584.34
2019-04-07T20:16:16.349Z,100586.01
2019-04-07T20:18:59.573Z,100580.73
2019-04-07T20:21:54.783Z,100584.96
2019-04-07T20:24:40.641Z,100587.25
2019-04-07T20:27:29.755Z,100586.70
2019-04-07T20:30:31.735Z,100589.42
2019-04-07T20:33:21.014Z,100594.84
2019-04-07T20:36:20.499Z,100590.73
2019-04-07T20:39:00.534Z,100591.00
2019-04-07T20:41:36.369Z,100590.36
2019-04-07T20:44:30.830Z,100596.13
2019-04-07T20:47:31.554Z,100591.64
2019-04-07T20:50:23.767Z,100596.30
2019-04-07T20:53:17.375Z,100592.08
2019-04-07T20:55:54.963Z,100587.26
2019-04-07T20:58:53.813Z,100590.77
2019-04-07T21:01:25.603Z,100587.03
2019-04-07T21:04:17.910Z,100587.44
2019-04-07T21:07:16.437Z,100589.03
2019-04-07T21:09:56.371Z,100592.95
2019-04-07T21:12:47.182Z,100585.90
2019-04-07T21:15:50.082Z,100597.25
2019-04-07T21:18:31.750Z,100597.58
2019-04-07T21:21:11.818Z,100598.56
2019-04-07T21:23:46.204Z,100600.63
2019-04-07T21:26:41.195Z,100605.11
2019-04-07T21:29:20.369Z,100596.06
2019-04-07T21:32:09.597Z,100607.23
2019-04-07T21:34:53.607Z,100602.83
2019-04-07T21:37:47.561Z,100600.95
2019-04-07T21:40:28.590Z,100598.89
2019-04-07T21:43:09.260Z,100602.87
2019-04-07T21:46:09.977Z,100604.29
2019-04-07T21:49:01.765Z,100612.03
2019-04-07T21:51:46.601Z,100608.69
2019-04-07T21:54:37.863Z,100619.98
2019-04-07T21:57:37.998Z,100616.42
2019-04-07T22:00:32.576Z,100617.30
2019-04-07T22:03:21.241Z,100618.22
2019-04-07T22:06:07.784Z,100617.92
2019-04-07T22:08:47.840Z,100612.77
2019-04-07T22:11:17.651Z,100623.60
2019-04-07T22:13:47.142Z,100620.87
2019-04-07T22:16:16.449Z,100622.72
2019-04-07T22:18:45.721Z,100627.20
2019-04-07T22:21:15.009Z,100628.09
2019-04-07T22:23:44.381Z,100627.56
2019-04-07T22:26:17.891Z,100631.17
2019-04-07T22:28:44.983Z,100623.98
2019-04-07T22:31:16.982Z,100627.34
2019-04-07T22:33:46.627Z,100628.83
2019-04-07T22:36:16.679Z,100622.66
2019-04-07T22:38:46.085Z,100622.97
2019-04-07T22:41:15.559Z,100624.14
2019-04-07T22:43:47.834Z,100628.50
2019-04-07T22:46:19.428Z,100627.70
2019-04-07T22:48:46.780Z,100631.84
2019-04-07T22:51:16.729Z,100630.16
2019-04-07T22:53:46.093Z,100630.52
2019-04-07T22:56:16.070Z,100622.05
2019-04-07T22:58:45.407Z,100626.66
2019-04-07T23:01:14.754Z,100627.22
2019-04-07T23:03:43.995Z,100621.24
2019-04-07T23:06:13.250Z,100628.66
2019-04-07T23:08:43.255Z,100628.69
2019-04-07T23:11:12.532Z,100623.81
2019-04-07T23:13:42.028Z,100625.17
2019-04-07T23:16:14.920Z,100627.00
2019-04-07T23:18:42.440Z,100632.39
2019-04-07T23:21:11.980Z,100628.98
2019-04-07T23:23:41.978Z,100627.08
2019-04-07T23:26:11.281Z,100633.71
2019-04-07T23:28:40.728Z,100632.09
2019-04-07T23:31:09.981Z,100635.17
2019-04-07T23:33:39.352Z,100630.47
2019-04-07T23:36:09.435Z,100638.30
2019-04-07T23:38:39.096Z,100634.95
2019-04-07T23:41:08.421Z,100631.34
2019-04-07T23:43:37.699Z,100641.59
2019-04-07T23:46:18.751Z,100639.83
2019-04-07T23:48:38.144Z,100639.33
2019-04-07T23:51:07.475Z,100641.94
2019-04-07T23:54:08.699Z,100632.30
2019-04-07T23:56:39.429Z,100635.53
2019-04-07T23:59:08.991Z,100635.27
